createdAt,value
2023-02-13T00:01:27.327Z,5.67
2023-02-13T00:03:55.623Z,5.65
2023-02-13T00:06:24.628Z,5.63
2023-02-13T00:08:52.954Z,5.64
2023-02-13T00:11:21.632Z,5.63
2023-02-13T00:13:49.915Z,5.64
2023-02-13T00:16:19.587Z,5.63
2023-02-13T00:18:47.859Z,5.63
2023-02-13T00:21:16.137Z,5.63
2023-02-13T00:23:44.354Z,5.64
2023-02-13T00:26:15.390Z,5.62
2023-02-13T00:28:44.023Z,5.65
2023-02-13T00:31:15.151Z,5.62
2023-02-13T00:33:45.116Z,5.60
2023-02-13T00:36:17.936Z,5.59
2023-02-13T00:38:46.575Z,5.55
2023-02-13T00:41:16.668Z,5.53
2023-02-13T00:43:45.422Z,5.52
2023-02-13T00:46:13.869Z,5.53
2023-02-13T00:48:44.174Z,5.52
2023-02-13T00:51:13.203Z,5.52
2023-02-13T00:53:41.501Z,5.50
2023-02-13T00:56:09.933Z,5.50
2023-02-13T00:58:38.985Z,5.50
2023-02-13T01:01:07.498Z,5.50
2023-02-13T01:03:36.112Z,5.49
2023-02-13T01:06:07.030Z,5.47
2023-02-13T01:08:35.844Z,5.45
2023-02-13T01:11:04.154Z,5.46
2023-02-13T01:13:32.455Z,5.45
2023-02-13T01:16:01.412Z,5.43
2023-02-13T01:18:30.145Z,5.42
2023-02-13T01:21:01.800Z,5.41
2023-02-13T01:23:37.407Z,5.38
2023-02-13T01:26:07.892Z,5.33
2023-02-13T01:28:36.737Z,5.32
2023-02-13T01:31:05.221Z,5.31
2023-02-13T01:33:34.641Z,5.29
2023-02-13T01:36:09.003Z,5.27
2023-02-13T01:38:38.775Z,5.22
2023-02-13T01:41:07.513Z,5.17
2023-02-13T01:43:51.352Z,5.13
2023-02-13T01:46:25.960Z,5.10
2023-02-13T01:49:07.122Z,5.07
2023-02-13T01:51:37.371Z,5.04
2023-02-13T01:54:10.428Z,5.03
2023-02-13T01:56:45.189Z,5.03
2023-02-13T01:59:16.434Z,5.01
2023-02-13T02:01:45.425Z,4.97
2023-02-13T02:04:18.118Z,4.96
2023-02-13T02:06:53.323Z,4.96
2023-02-13T02:09:40.621Z,4.93
2023-02-13T02:12:18.939Z,4.90
2023-02-13T02:14:47.236Z,4.87
2023-02-13T02:17:15.635Z,4.86
2023-02-13T02:19:50.827Z,4.83
2023-02-13T02:22:53.718Z,4.80
2023-02-13T02:26:38.810Z,4.76
2023-02-13T02:29:30.739Z,4.73
2023-02-13T02:32:33.130Z,4.72
2023-02-13T02:35:18.279Z,4.73
2023-02-13T02:38:04.938Z,4.74
2023-02-13T02:40:44.857Z,4.74
2023-02-13T02:43:31.561Z,4.74
2023-02-13T02:46:10.108Z,4.76
2023-02-13T02:49:07.918Z,4.75
2023-02-13T02:51:47.775Z,4.75
2023-02-13T02:54:41.334Z,4.76
2023-02-13T02:57:15.317Z,4.78
2023-02-13T03:00:02.647Z,4.79
2023-02-13T03:02:49.385Z,4.80
2023-02-13T03:05:40.530Z,4.79
2023-02-13T03:08:09.273Z,4.77
2023-02-13T03:10:57.275Z,4.77
2023-02-13T03:13:42.422Z,4.75
2023-02-13T03:16:34.859Z,4.73
2023-02-13T03:19:20.548Z,4.74
2023-02-13T03:22:15.543Z,4.72
2023-02-13T03:24:59.790Z,4.75
2023-02-13T03:27:59.811Z,4.77
2023-02-13T03:30:41.810Z,4.75
2023-02-13T03:33:25.292Z,4.76
2023-02-13T03:36:21.099Z,4.77
2023-02-13T03:38:58.566Z,4.78
2023-02-13T03:41:31.923Z,4.78
2023-02-13T03:44:11.040Z,4.80
2023-02-13T03:46:44.098Z,4.81
2023-02-13T03:49:37.419Z,4.81
2023-02-13T03:52:11.523Z,4.80
2023-02-13T03:55:03.364Z,4.81
2023-02-13T03:57:52.701Z,4.81
2023-02-13T04:00:22.993Z,4.81
2023-02-13T04:03:03.217Z,4.82
2023-02-13T04:05:37.047Z,4.80
2023-02-13T04:08:06.046Z,4.81
2023-02-13T04:10:40.525Z,4.80
2023-02-13T04:13:17.603Z,4.79
2023-02-13T04:15:53.764Z,4.80
2023-02-13T04:18:25.957Z,4.78
2023-02-13T04:20:54.622Z,4.80
2023-02-13T04:23:22.889Z,4.80
2023-02-13T04:25:55.560Z,4.83
2023-02-13T04:28:23.990Z,4.84
2023-02-13T04:30:52.345Z,4.84
2023-02-13T04:33:20.716Z,4.85
2023-02-13T04:35:48.950Z,4.85
2023-02-13T04:38:17.185Z,4.85
2023-02-13T04:40:45.473Z,4.86
2023-02-13T04:43:15.127Z,4.87
2023-02-13T04:45:43.383Z,4.87
2023-02-13T04:48:11.662Z,4.87
2023-02-13T04:50:39.922Z,4.87
2023-02-13T04:53:08.313Z,4.87
2023-02-13T04:55:36.786Z,4.87
2023-02-13T04:58:05.079Z,4.86
2023-02-13T05:00:34.669Z,4.85
2023-02-13T05:03:07.224Z,4.84
2023-02-13T05:05:35.980Z,4.83
2023-02-13T05:08:04.636Z,4.76
2023-02-13T05:10:33.006Z,4.75
2023-02-13T05:13:01.313Z,4.75
2023-02-13T05:15:29.757Z,4.73
2023-02-13T05:17:59.406Z,4.73
2023-02-13T05:20:27.653Z,4.74
2023-02-13T05:23:13.884Z,4.74
2023-02-13T05:25:43.285Z,4.73
2023-02-13T05:28:32.613Z,4.73
2023-02-13T05:31:00.317Z,4.72
2023-02-13T05:33:30.291Z,4.66
2023-02-13T05:35:58.592Z,4.64
2023-02-13T05:38:26.830Z,4.63
2023-02-13T05:40:55.590Z,4.63
2023-02-13T05:43:24.114Z,4.64
2023-02-13T05:45:52.861Z,4.63
2023-02-13T05:48:21.123Z,4.64
2023-02-13T05:50:50.730Z,4.64
2023-02-13T05:53:18.966Z,4.61
2023-02-13T05:55:48.196Z,4.61
2023-02-13T05:58:16.387Z,4.58
2023-02-13T06:00:44.631Z,4.56
2023-02-13T06:03:12.855Z,4.52
2023-02-13T06:05:41.266Z,4.51
2023-02-13T06:08:10.848Z,4.49
2023-02-13T06:10:39.337Z,4.49
2023-02-13T06:13:07.573Z,4.50
2023-02-13T06:15:35.875Z,4.48
2023-02-13T06:18:04.169Z,4.48
2023-02-13T06:20:32.504Z,4.49
2023-02-13T06:23:00.877Z,4.51
2023-02-13T06:25:30.799Z,4.50
2023-02-13T06:27:59.048Z,4.50
2023-02-13T06:30:27.445Z,4.49
2023-02-13T06:32:55.720Z,4.51
2023-02-13T06:35:24.099Z,4.51
2023-02-13T06:37:52.568Z,4.50
2023-02-13T06:40:21.320Z,4.51
2023-02-13T06:42:50.977Z,4.54
2023-02-13T06:45:19.513Z,4.52
2023-02-13T06:47:50.287Z,4.50
2023-02-13T06:50:19.386Z,4.49
2023-02-13T06:52:48.795Z,4.45
2023-02-13T06:55:17.804Z,4.39
2023-02-13T06:57:46.787Z,4.33
2023-02-13T07:00:19.285Z,4.29
2023-02-13T07:02:48.674Z,4.26
2023-02-13T07:05:16.991Z,4.22
2023-02-13T07:07:45.347Z,4.21
2023-02-13T07:10:15.559Z,4.10
2023-02-13T07:12:45.801Z,4.08
2023-02-13T07:15:19.165Z,4.04
2023-02-13T07:17:47.403Z,4.00
2023-02-13T07:20:15.759Z,3.98
2023-02-13T07:22:43.991Z,3.96
2023-02-13T07:25:12.235Z,3.95
2023-02-13T07:27:41.638Z,3.94
2023-02-13T07:30:11.207Z,3.94
2023-02-13T07:32:40.831Z,3.95
2023-02-13T07:35:09.419Z,3.94
2023-02-13T07:37:37.680Z,3.92
2023-02-13T07:40:07.501Z,3.91
2023-02-13T07:42:36.187Z,3.87
2023-02-13T07:45:07.550Z,3.88
2023-02-13T07:47:36.058Z,3.89
2023-02-13T07:50:06.966Z,3.92
2023-02-13T07:52:37.132Z,3.96
2023-02-13T07:55:05.967Z,3.98
2023-02-13T07:57:35.147Z,4.03
2023-02-13T08:00:04.419Z,4.05
2023-02-13T08:02:32.745Z,4.08
2023-02-13T08:05:01.047Z,4.12
2023-02-13T08:07:31.547Z,4.16
2023-02-13T08:10:17.217Z,4.20
2023-02-13T08:12:45.974Z,4.24
2023-02-13T08:15:16.312Z,4.25
2023-02-13T08:17:44.648Z,4.27
2023-02-13T08:20:13.525Z,4.28
2023-02-13T08:22:43.219Z,4.31
2023-02-13T08:25:11.683Z,4.33
2023-02-13T08:27:40.455Z,4.33
2023-02-13T08:30:11.616Z,4.33
2023-02-13T08:32:53.520Z,4.36
2023-02-13T08:35:26.610Z,4.36
2023-02-13T08:37:56.345Z,4.34
2023-02-13T08:40:25.981Z,4.36
2023-02-13T08:42:55.864Z,4.38
2023-02-13T08:45:25.197Z,4.36
2023-02-13T08:47:57.176Z,4.32
2023-02-13T08:50:25.920Z,4.36
2023-02-13T08:52:55.714Z,4.35
2023-02-13T08:55:24.075Z,4.36
2023-02-13T08:57:52.365Z,4.30
2023-02-13T09:00:22.147Z,4.36
2023-02-13T09:02:50.463Z,4.39
2023-02-13T09:05:18.918Z,4.43
2023-02-13T09:07:47.285Z,4.48
2023-02-13T09:10:17.189Z,4.52
2023-02-13T09:12:45.462Z,4.58
2023-02-13T09:15:13.777Z,4.62
2023-02-13T09:17:42.039Z,4.70
2023-02-13T09:20:12.714Z,4.72
2023-02-13T09:22:41.163Z,4.83
2023-02-13T09:25:10.392Z,4.91
2023-02-13T09:27:40.204Z,5.00
2023-02-13T09:30:10.413Z,5.09
2023-02-13T09:32:38.891Z,5.18
2023-02-13T09:35:07.555Z,5.27
2023-02-13T09:37:35.896Z,5.35
2023-02-13T09:40:04.286Z,5.43
2023-02-13T09:42:36.912Z,5.52
2023-02-13T09:45:10.021Z,5.65
2023-02-13T09:47:41.409Z,5.76
2023-02-13T09:50:18.800Z,5.87
2023-02-13T09:52:48.152Z,5.97
2023-02-13T09:55:18.890Z,6.08
2023-02-13T09:57:54.552Z,6.18
2023-02-13T10:00:30.895Z,6.27
2023-02-13T10:03:20.373Z,6.34
2023-02-13T10:05:58.244Z,6.34
2023-02-13T10:08:59.218Z,6.27
2023-02-13T10:12:02.377Z,6.35
2023-02-13T10:14:38.528Z,6.37
2023-02-13T10:17:14.153Z,6.41
2023-02-13T10:19:48.287Z,6.43
2023-02-13T10:22:19.709Z,6.51
2023-02-13T10:24:53.018Z,6.54
2023-02-13T10:27:26.421Z,6.51
2023-02-13T10:30:09.635Z,6.61
2023-02-13T10:32:47.951Z,6.63
2023-02-13T10:35:25.559Z,6.67
2023-02-13T10:37:57.837Z,6.69
2023-02-13T10:40:33.605Z,6.69
2023-02-13T10:43:10.029Z,6.72
2023-02-13T10:45:56.407Z,6.75
2023-02-13T10:48:44.426Z,6.77
2023-02-13T10:51:21.052Z,6.78
2023-02-13T10:54:12.616Z,6.83
2023-02-13T10:56:48.434Z,6.76
2023-02-13T10:59:38.828Z,6.77
2023-02-13T11:02:24.167Z,6.79
2023-02-13T11:04:59.954Z,6.84
2023-02-13T11:07:28.839Z,6.83
2023-02-13T11:10:05.316Z,6.85
2023-02-13T11:12:35.764Z,6.87
2023-02-13T11:15:08.338Z,6.88
2023-02-13T11:17:43.121Z,6.91
2023-02-13T11:20:33.946Z,6.92
2023-02-13T11:23:35.997Z,6.95
2023-02-13T11:26:09.168Z,6.92
2023-02-13T11:28:40.201Z,7.00
2023-02-13T11:31:24.049Z,7.02
2023-02-13T11:33:52.570Z,7.09
2023-02-13T11:36:29.144Z,7.12
2023-02-13T11:39:06.033Z,7.16
2023-02-13T11:41:42.135Z,7.23
2023-02-13T11:44:24.279Z,7.29
2023-02-13T11:46:55.191Z,7.31
2023-02-13T11:49:25.956Z,7.40
2023-02-13T11:51:58.121Z,7.39
2023-02-13T11:54:32.561Z,7.45
2023-02-13T11:57:05.291Z,7.50
2023-02-13T11:59:41.728Z,7.47
2023-02-13T12:02:20.037Z,7.53
2023-02-13T12:04:50.644Z,7.60
2023-02-13T12:07:24.404Z,7.68
2023-02-13T12:10:01.959Z,7.78
2023-02-13T12:12:39.466Z,7.86
2023-02-13T12:15:19.563Z,7.88
2023-02-13T12:17:56.059Z,7.94
2023-02-13T12:20:25.339Z,7.97
2023-02-13T12:23:06.037Z,7.96
2023-02-13T12:26:01.168Z,8.02
2023-02-13T12:28:50.373Z,8.06
2023-02-13T12:31:35.837Z,8.07
2023-02-13T12:35:02.951Z,8.09
2023-02-13T12:37:48.538Z,8.13
2023-02-13T12:40:50.663Z,8.16
2023-02-13T12:43:48.117Z,8.21
2023-02-13T12:46:23.972Z,8.24
2023-02-13T12:49:01.787Z,8.29
2023-02-13T12:51:45.038Z,8.32
2023-02-13T12:54:38.010Z,8.34
2023-02-13T12:57:23.983Z,8.32
2023-02-13T13:00:17.554Z,8.32
2023-02-13T13:03:10.735Z,8.34
2023-02-13T13:06:11.439Z,8.35
2023-02-13T13:09:07.978Z,8.39
2023-02-13T13:12:20.467Z,8.40
2023-02-13T13:14:56.827Z,8.43
2023-02-13T13:17:45.290Z,8.42
2023-02-13T13:20:53.459Z,8.51
2023-02-13T13:23:30.712Z,8.55
2023-02-13T13:26:07.845Z,8.57
2023-02-13T13:28:41.976Z,8.59
2023-02-13T13:31:11.736Z,8.56
2023-02-13T13:33:45.486Z,8.61
2023-02-13T13:36:22.993Z,8.63
2023-02-13T13:39:01.616Z,8.68
2023-02-13T13:41:39.484Z,8.69
2023-02-13T13:44:43.065Z,8.72
2023-02-13T13:47:26.361Z,8.63
2023-02-13T13:49:57.076Z,8.71
2023-02-13T13:52:28.618Z,8.75
2023-02-13T13:55:00.517Z,8.78
2023-02-13T13:58:01.813Z,8.81
2023-02-13T14:00:32.714Z,8.83
2023-02-13T14:03:25.585Z,8.87
2023-02-13T14:06:04.857Z,8.92
2023-02-13T14:09:40.733Z,8.95
2023-02-13T14:12:38.901Z,8.94
2023-02-13T14:15:45.969Z,8.93
2023-02-13T14:18:23.110Z,8.94
2023-02-13T14:20:58.565Z,8.94
2023-02-13T14:23:38.623Z,8.96
2023-02-13T14:26:34.848Z,8.94
2023-02-13T14:29:32.891Z,8.95
2023-02-13T14:32:18.377Z,8.99
2023-02-13T14:34:57.884Z,9.01
2023-02-13T14:37:35.266Z,9.06
2023-02-13T14:40:43.323Z,9.09
2023-02-13T14:43:30.802Z,9.09
2023-02-13T14:46:05.376Z,9.13
2023-02-13T14:48:42.682Z,9.16
2023-02-13T14:51:28.593Z,9.20
2023-02-13T14:54:02.693Z,9.23
2023-02-13T14:56:32.849Z,9.27
2023-02-13T14:59:17.819Z,9.29
2023-02-13T15:01:52.995Z,9.35
2023-02-13T15:04:28.042Z,9.37
2023-02-13T15:06:59.041Z,9.39
2023-02-13T15:09:34.485Z,9.44
2023-02-13T15:12:03.109Z,9.46
2023-02-13T15:14:37.401Z,9.49
2023-02-13T15:17:12.050Z,9.50
2023-02-13T15:19:46.369Z,9.53
2023-02-13T15:22:21.595Z,9.57
2023-02-13T15:24:51.474Z,9.60
2023-02-13T15:27:25.389Z,9.61
2023-02-13T15:30:01.590Z,9.62
2023-02-13T15:32:34.193Z,9.63
2023-02-13T15:35:02.445Z,9.68
2023-02-13T15:37:32.307Z,9.69
2023-02-13T15:40:25.292Z,9.68
2023-02-13T15:42:54.596Z,9.69
2023-02-13T15:45:27.608Z,9.72
2023-02-13T15:47:57.063Z,9.73
2023-02-13T15:50:31.232Z,9.72
2023-02-13T15:53:00.196Z,9.75
2023-02-13T15:55:32.170Z,9.72
2023-02-13T15:58:02.363Z,9.70
2023-02-13T16:00:37.194Z,9.69
2023-02-13T16:03:13.068Z,9.67
2023-02-13T16:05:41.795Z,9.65
2023-02-13T16:08:35.314Z,9.64
2023-02-13T16:11:29.157Z,9.59
2023-02-13T16:14:14.350Z,9.57
2023-02-13T16:16:53.169Z,9.54
2023-02-13T16:19:49.891Z,9.52
2023-02-13T16:22:34.384Z,9.50
2023-02-13T16:25:25.093Z,9.47
2023-02-13T16:27:56.541Z,9.47
2023-02-13T16:30:33.441Z,9.45
2023-02-13T16:33:23.945Z,9.43
2023-02-13T16:35:55.189Z,9.42
2023-02-13T16:38:36.122Z,9.39
2023-02-13T16:41:06.939Z,9.36
2023-02-13T16:43:46.659Z,9.37
2023-02-13T16:46:44.454Z,9.33
2023-02-13T16:49:24.816Z,9.31
2023-02-13T16:52:12.472Z,9.29
2023-02-13T16:54:55.854Z,9.27
2023-02-13T16:57:31.334Z,9.24
2023-02-13T17:00:09.731Z,9.22
2023-02-13T17:02:40.008Z,9.22
2023-02-13T17:05:23.145Z,9.21
2023-02-13T17:07:54.631Z,9.21
2023-02-13T17:10:27.334Z,9.21
2023-02-13T17:12:58.286Z,9.17
2023-02-13T17:15:28.825Z,9.19
2023-02-13T17:17:57.171Z,9.18
2023-02-13T17:20:29.842Z,9.16
2023-02-13T17:22:59.751Z,9.15
2023-02-13T17:25:31.467Z,9.10
2023-02-13T17:28:02.465Z,9.06
2023-02-13T17:30:34.118Z,9.02
2023-02-13T17:33:07.613Z,8.98
2023-02-13T17:35:37.570Z,8.95
2023-02-13T17:38:08.348Z,8.93
2023-02-13T17:40:37.042Z,8.90
2023-02-13T17:43:06.463Z,8.89
2023-02-13T17:45:36.186Z,8.88
2023-02-13T17:48:04.979Z,8.85
2023-02-13T17:50:36.802Z,8.83
2023-02-13T17:53:08.553Z,8.79
2023-02-13T17:55:37.375Z,8.75
2023-02-13T17:58:05.741Z,8.76
2023-02-13T18:00:35.567Z,8.74
2023-02-13T18:03:04.555Z,8.72
2023-02-13T18:05:33.254Z,8.71
2023-02-13T18:08:03.198Z,8.70
2023-02-13T18:10:34.291Z,8.69
2023-02-13T18:13:05.061Z,8.67
2023-02-13T18:15:33.685Z,8.66
2023-02-13T18:18:02.261Z,8.64
2023-02-13T18:20:30.553Z,8.61
2023-02-13T18:22:58.847Z,8.61
2023-02-13T18:25:29.202Z,8.60
2023-02-13T18:27:57.452Z,8.58
2023-02-13T18:30:26.211Z,8.56
2023-02-13T18:32:56.671Z,8.53
2023-02-13T18:35:25.260Z,8.53
2023-02-13T18:37:53.530Z,8.50
2023-02-13T18:40:22.512Z,8.48
2023-02-13T18:42:52.465Z,8.45
2023-02-13T18:45:20.949Z,8.45
2023-02-13T18:47:49.202Z,8.44
2023-02-13T18:50:17.589Z,8.41
2023-02-13T18:52:46.717Z,8.38
2023-02-13T18:55:14.944Z,8.34
2023-02-13T18:57:45.380Z,8.31
2023-02-13T19:00:17.299Z,8.27
2023-02-13T19:02:45.634Z,8.24
2023-02-13T19:05:13.955Z,8.21
2023-02-13T19:07:42.241Z,8.18
2023-02-13T19:10:11.414Z,8.15
2023-02-13T19:12:39.711Z,8.11
2023-02-13T19:15:09.533Z,8.09
2023-02-13T19:17:39.804Z,8.04
2023-02-13T19:20:09.879Z,8.00
2023-02-13T19:22:38.231Z,7.97
2023-02-13T19:25:07.173Z,7.93
2023-02-13T19:27:39.032Z,7.90
2023-02-13T19:30:09.655Z,7.87
2023-02-13T19:32:39.418Z,7.84
2023-02-13T19:35:08.537Z,7.82
2023-02-13T19:37:43.886Z,7.79
2023-02-13T19:40:14.228Z,7.74
2023-02-13T19:42:42.631Z,7.72
2023-02-13T19:45:11.635Z,7.66
2023-02-13T19:47:41.298Z,7.65
2023-02-13T19:50:10.937Z,7.59
2023-02-13T19:52:39.365Z,7.53
2023-02-13T19:55:08.307Z,7.49
2023-02-13T19:57:36.619Z,7.43
2023-02-13T20:00:06.072Z,7.38
2023-02-13T20:02:34.307Z,7.33
2023-02-13T20:05:07.021Z,7.27
2023-02-13T20:07:35.321Z,7.22
2023-02-13T20:10:03.599Z,7.16
2023-02-13T20:12:31.846Z,7.10
2023-02-13T20:15:00.153Z,7.04
2023-02-13T20:17:28.424Z,7.01
2023-02-13T20:19:56.844Z,6.95
2023-02-13T20:22:26.553Z,6.91
2023-02-13T20:24:54.845Z,6.86
2023-02-13T20:27:23.137Z,6.82
2023-02-13T20:29:53.303Z,6.79
2023-02-13T20:32:27.376Z,6.72
2023-02-13T20:34:59.874Z,6.68
2023-02-13T20:37:29.796Z,6.63
2023-02-13T20:39:58.072Z,6.59
2023-02-13T20:42:26.352Z,6.52
2023-02-13T20:44:54.804Z,6.46
2023-02-13T20:47:23.050Z,6.40
2023-02-13T20:49:51.327Z,6.31
2023-02-13T20:52:19.605Z,6.25
2023-02-13T20:54:49.288Z,6.17
2023-02-13T20:57:17.549Z,6.14
2023-02-13T20:59:45.950Z,6.10
2023-02-13T21:02:14.408Z,6.06
2023-02-13T21:04:42.766Z,6.01
2023-02-13T21:07:11.193Z,5.97
2023-02-13T21:09:39.732Z,5.93
2023-02-13T21:12:09.416Z,5.82
2023-02-13T21:14:37.817Z,5.73
2023-02-13T21:17:06.081Z,5.64
2023-02-13T21:19:35.223Z,5.57
2023-02-13T21:22:12.202Z,5.51
2023-02-13T21:24:43.090Z,5.41
2023-02-13T21:27:13.044Z,5.38
2023-02-13T21:29:41.359Z,5.33
2023-02-13T21:32:09.753Z,5.31
2023-02-13T21:34:38.142Z,5.25
2023-02-13T21:37:06.425Z,5.26
2023-02-13T21:39:34.660Z,5.24
2023-02-13T21:42:04.449Z,5.19
2023-02-13T21:44:34.060Z,5.20
2023-02-13T21:47:02.364Z,5.17
2023-02-13T21:49:30.668Z,5.17
2023-02-13T21:51:59.009Z,5.13
2023-02-13T21:54:27.446Z,5.12
2023-02-13T21:56:55.732Z,5.03
2023-02-13T21:59:23.939Z,4.92
2023-02-13T22:01:54.761Z,4.78
2023-02-13T22:04:23.189Z,4.70
2023-02-13T22:06:53.544Z,4.61
2023-02-13T22:09:23.065Z,4.50
2023-02-13T22:11:53.984Z,4.37
2023-02-13T22:14:22.638Z,4.28
2023-02-13T22:16:53.493Z,4.24
2023-02-13T22:19:21.905Z,4.12
2023-02-13T22:21:50.195Z,3.99
2023-02-13T22:24:18.459Z,3.93
2023-02-13T22:26:46.832Z,3.90
2023-02-13T22:29:17.790Z,3.93
2023-02-13T22:31:46.345Z,3.88
2023-02-13T22:34:16.419Z,3.86
2023-02-13T22:36:44.682Z,3.86
2023-02-13T22:39:13.366Z,3.86
2023-02-13T22:41:44.482Z,3.86
2023-02-13T22:44:12.738Z,3.83
2023-02-13T22:46:41.014Z,3.79
2023-02-13T22:49:09.352Z,3.78
2023-02-13T22:51:39.051Z,3.75
2023-02-13T22:54:07.569Z,3.70
2023-02-13T22:56:35.929Z,3.72
2023-02-13T22:59:04.595Z,3.70
2023-02-13T23:01:32.845Z,3.70
2023-02-13T23:04:01.233Z,3.63
2023-02-13T23:06:29.620Z,3.66
2023-02-13T23:08:59.378Z,3.65
2023-02-13T23:11:46.794Z,3.60
2023-02-13T23:14:16.332Z,3.62
2023-02-13T23:17:02.558Z,3.62
2023-02-13T23:19:31.137Z,3.62
2023-02-13T23:21:59.686Z,3.62
2023-02-13T23:24:30.544Z,3.60
2023-02-13T23:26:59.084Z,3.65
2023-02-13T23:29:27.821Z,3.66
2023-02-13T23:31:56.208Z,3.67
2023-02-13T23:34:24.586Z,3.64
2023-02-13T23:36:52.876Z,3.68
2023-02-13T23:39:21.544Z,3.69
2023-02-13T23:41:51.224Z,3.72
2023-02-13T23:44:19.705Z,3.73
2023-02-13T23:46:48.105Z,3.75
2023-02-13T23:49:16.610Z,3.80
2023-02-13T23:51:44.893Z,3.82
2023-02-13T23:54:16.673Z,3.84
2023-02-13T23:56:45.644Z,3.88
2023-02-13T23:59:16.746Z,3.89
